This is the latest recevied weather packets stored in our database for station/object KB1LTW-13. If no packets are shown the sender has not sent any weather packets the latest 10 day(s).
| Time | Temp. | Humidity | Pressure | Rain* | Wind** | Luminosity | Snow |
|---|---|---|---|---|---|---|---|
| 1777353681 | 9.44° C | 66% | 1025.1 hPa | 0 mm | - | 0 W/m² | - |
| 1777353076 | 9.44° C | 66% | 1025.2 hPa | 0 mm | - | 0 W/m² | - |
| 1777352483 | 9.44° C | 66% | 1025.3 hPa | 0 mm | - | 0 W/m² | - |
| 1777349476 | 10° C | 63% | 1026.5 hPa | 0 mm | - | 0 W/m² | - |
| 1777348285 | 10° C | 61% | 1026.7 hPa | 0 mm | - | 0 W/m² | - |
| 1777344685 | 11.11° C | 56% | 1027.2 hPa | 0 mm | - | 0 W/m² | - |
| 1777343477 | 11.11° C | 57% | 1027 hPa | 0 mm | - | 0 W/m² | - |
| 1777342305 | 11.67° C | 54% | 1027.4 hPa | 0 mm | - | 0 W/m² | - |
| 1777339284 | 13.33° C | 49% | 1027 hPa | 0 mm | - | 0 W/m² | - |
| 1777332087 | 18.33° C | 36% | 1025.5 hPa | 0 mm | - | 11 W/m² | - |
| 1777325476 | 21.67° C | 26% | 1025.8 hPa | 0 mm | - | 107 W/m² | - |
| 1777318877 | 20.56° C | 28% | 1025.3 hPa | 0 mm | - | 420 W/m² | - |
| 1777317081 | 21.11° C | 27% | 1025.7 hPa | 0 mm | - | 440 W/m² | - |
| 1777315880 | 20.56° C | 31% | 1025.8 hPa | 0 mm | - | 268 W/m² | - |
| 1777315280 | 20° C | 32% | 1025.9 hPa | 0 mm | - | 448 W/m² | - |
| 1777314685 | 20.56° C | 31% | 1026 hPa | 0 mm | - | 508 W/m² | - |
| 1777314092 | 20° C | 31% | 1026.2 hPa | 0 mm | - | 302 W/m² | - |
| 1777312880 | 20° C | 31% | 1026.3 hPa | 0 mm | - | 269 W/m² | - |
| 1777312286 | 20° C | 32% | 1026.4 hPa | 0 mm | - | 293 W/m² | - |
| 1777308682 | 19.44° C | 34% | 1026.8 hPa | 0 mm | - | 850 W/m² | - |
| 1777301476 | 16.11° C | 41% | 1027.2 hPa | 0 mm | - | 770 W/m² | - |
| 1777300304 | 15° C | 43% | 1027.2 hPa | 0 mm | - | 733 W/m² | - |
| 1777296078 | 13.33° C | 44% | 1026.9 hPa | 0 mm | - | 309 W/m² | - |
| 1777295484 | 12.78° C | 45% | 1026.7 hPa | 0 mm | - | 336 W/m² | - |
| 1777292486 | 11.11° C | 50% | 1026.3 hPa | 0 mm | - | 196 W/m² | - |
* Rain latest hour (hover to see other rain measurements)
** Current wind speed in m/s (hover to see current wind gust speed)